»·PEaware :: DCM789 KOAK-KSNA

DCM789 :: KOAK-KSNA

FLIGHT INFORMATION

Flight Status: Arrived
Operator:
DotCom
More flights by this operator :: More flights under this callsign
Pilot: Cole F. (14495)
Aircraft: EMBRAER PHENOM 300
(E55P)
More flights by this aircraft type
Origin: KOAK Metro Oakland Intl
United States
Destination: KSNA John Wayne-Orange Co
United States
More flights between these airports :: More routes between these airports
Route: COAST9 MCKEY TILLT TILLT2
File this flight plan on PilotEdge
Remarks:
Altitude:
(Current/Filed)
41,000ft
Speed:
(Current/Filed)
425kts
Departed: 01-Oct-21 04:10 PM
Arrived: 01-Oct-21 05:27 PM
Distance/Time
Traveled:
322nm/1:17
Distance/Time
To Go:
Arrived

Flight Plot

Page will automatically refresh every two minutes.

Flight plan parsing failed; only flown route is shown


Map Options




Map Legend


Flown Route
Filed Route
Departure Airport
Arrival Airport
Navaid (VOR, NDB)
Fix

Horizontal Profiles

Position Reports

Time Latitude Longitude Heading Altitude Ground
Speed
01-Oct-21 15:50 37.730329 -122.214168 168 7ft 0kts
01-Oct-21 15:51 37.730329 -122.214168 168 7ft 0kts
01-Oct-21 15:52 37.730329 -122.214168 168 7ft 0kts
01-Oct-21 15:53 37.730329 -122.214168 168 7ft 0kts
01-Oct-21 15:54 37.730329 -122.214168 168 7ft 0kts
01-Oct-21 15:55 37.730329 -122.214168 168 7ft 0kts
01-Oct-21 15:56 37.730329 -122.214168 168 7ft 0kts
01-Oct-21 15:57 37.730329 -122.214168 168 7ft 0kts
01-Oct-21 15:58 37.730328 -122.214168 168 7ft 0kts
01-Oct-21 15:59 37.730328 -122.214168 168 7ft 0kts
01-Oct-21 16:00 37.730328 -122.214168 168 7ft 0kts
01-Oct-21 16:01 37.730328 -122.214168 168 7ft 0kts
01-Oct-21 16:02 37.730328 -122.214168 168 7ft 0kts
01-Oct-21 16:03 37.730043 -122.214098 169 7ft 5kts
01-Oct-21 16:04 37.728020 -122.211422 113 7ft 15kts
01-Oct-21 16:05 37.726546 -122.206875 112 7ft 12kts
01-Oct-21 16:06 37.725695 -122.204524 170 7ft 0kts
01-Oct-21 16:07 37.725695 -122.204524 170 7ft 0kts
01-Oct-21 16:08 37.725456 -122.204569 203 8ft 5kts
01-Oct-21 16:09 37.729784 -122.221478 290 525ft 123kts
01-Oct-21 16:10 37.745972 -122.275413 292 2475ft 195kts
01-Oct-21 16:11 37.766389 -122.346737 291 4072ft 236kts
01-Oct-21 16:12 37.790842 -122.428463 291 5000ft 257kts
01-Oct-21 16:13 37.774448 -122.499695 182 5641ft 254kts
01-Oct-21 16:14 37.716942 -122.452525 151 8094ft 261kts
01-Oct-21 16:15 37.651304 -122.409996 153 10634ft 272kts
01-Oct-21 16:16 37.582866 -122.366551 154 13380ft 282kts
01-Oct-21 16:17 37.511535 -122.321594 155 15974ft 294kts
01-Oct-21 16:18 37.437362 -122.274999 156 18428ft 305kts
01-Oct-21 16:19 37.360186 -122.226639 156 20817ft 316kts
01-Oct-21 16:20 37.280288 -122.176668 157 23207ft 327kts
01-Oct-21 16:21 37.197827 -122.125258 157 25402ft 338kts
01-Oct-21 16:22 37.112822 -122.072354 157 27409ft 348kts
01-Oct-21 16:23 37.024807 -122.017742 158 29290ft 358kts
01-Oct-21 16:24 36.935149 -121.962227 158 31206ft 361kts
01-Oct-21 16:25 36.845556 -121.906919 158 33157ft 360kts
01-Oct-21 16:26 36.756371 -121.852005 158 34984ft 356kts
01-Oct-21 16:27 36.668492 -121.798035 159 36666ft 352kts
01-Oct-21 16:28 36.581013 -121.744450 159 38064ft 351kts
01-Oct-21 16:29 36.493877 -121.691207 159 39262ft 350kts
01-Oct-21 16:30 36.406667 -121.638071 158 40277ft 350kts
01-Oct-21 16:31 36.319181 -121.584877 158 41023ft 356kts
01-Oct-21 16:32 36.229575 -121.530542 158 41030ft 363kts
01-Oct-21 16:33 36.137169 -121.474644 158 41031ft 376kts
01-Oct-21 16:34 36.041825 -121.417123 158 41031ft 389kts
01-Oct-21 16:35 35.943359 -121.357878 158 41027ft 401kts
01-Oct-21 16:36 35.841566 -121.296825 158 41011ft 415kts
01-Oct-21 16:37 35.736799 -121.234144 158 41008ft 420kts
01-Oct-21 16:38 35.632319 -121.170503 159 41007ft 420kts
01-Oct-21 16:39 35.526887 -121.108730 159 41005ft 420kts
01-Oct-21 16:40 35.452121 -121.002222 131 41011ft 427kts
01-Oct-21 16:41 35.365333 -120.905444 142 41041ft 424kts
01-Oct-21 16:42 35.277003 -120.810101 142 41046ft 426kts
01-Oct-21 16:43 35.187986 -120.714330 142 41047ft 428kts
01-Oct-21 16:44 35.098204 -120.618073 142 41048ft 431kts
01-Oct-21 16:45 35.004732 -120.528769 150 41049ft 428kts
01-Oct-21 16:46 34.905390 -120.448190 150 41049ft 430kts
01-Oct-21 16:47 34.806080 -120.367959 150 40114ft 423kts
01-Oct-21 16:48 34.710319 -120.290825 151 38157ft 407kts
01-Oct-21 16:49 34.617567 -120.216478 151 36226ft 393kts
01-Oct-21 16:50 34.527959 -120.144885 151 34386ft 384kts
01-Oct-21 16:51 34.438997 -120.074018 151 32773ft 385kts
01-Oct-21 16:52 34.350292 -120.003499 151 31079ft 378kts
01-Oct-21 16:53 34.263614 -119.934767 151 29378ft 370kts
01-Oct-21 16:54 34.177556 -119.866749 150 27789ft 372kts
01-Oct-21 16:55 34.091035 -119.798464 150 26194ft 372kts
01-Oct-21 16:56 34.030724 -119.702975 120 26010ft 359kts
01-Oct-21 16:57 33.981214 -119.599109 122 25222ft 359kts
01-Oct-21 16:58 33.929905 -119.496384 122 23737ft 359kts
01-Oct-21 16:59 33.878540 -119.393411 121 22146ft 358kts
01-Oct-21 17:00 33.828397 -119.291616 122 20635ft 352kts
01-Oct-21 17:01 33.778986 -119.191571 121 19226ft 344kts
01-Oct-21 17:02 33.730639 -119.093955 121 17783ft 337kts
01-Oct-21 17:03 33.683285 -118.998594 121 16114ft 328kts
01-Oct-21 17:04 33.637535 -118.906723 120 14560ft 315kts
01-Oct-21 17:05 33.598842 -118.815966 100 13148ft 298kts
01-Oct-21 17:06 33.604394 -118.713705 81 11702ft 326kts
01-Oct-21 17:07 33.616494 -118.604766 81 10262ft 325kts
01-Oct-21 17:08 33.628170 -118.504534 81 8963ft 293kts
01-Oct-21 17:09 33.639323 -118.409156 81 7801ft 286kts
01-Oct-21 17:10 33.650076 -118.316252 81 6775ft 255kts
01-Oct-21 17:11 33.660389 -118.226992 81 5809ft 265kts
01-Oct-21 17:12 33.670173 -118.144222 81 5028ft 234kts
01-Oct-21 17:13 33.678581 -118.073342 81 4998ft 203kts
01-Oct-21 17:14 33.687729 -118.006843 67 5001ft 203kts
01-Oct-21 17:15 33.729592 -117.962095 31 4999ft 203kts
01-Oct-21 17:16 33.776759 -117.925157 31 4706ft 204kts
01-Oct-21 17:17 33.824164 -117.888334 31 4010ft 200kts
01-Oct-21 17:18 33.870581 -117.852451 31 3994ft 198kts
01-Oct-21 17:19 33.897684 -117.804226 111 3993ft 197kts
01-Oct-21 17:20 33.873669 -117.746881 164 3348ft 185kts
01-Oct-21 17:21 33.828594 -117.770296 212 2998ft 183kts
01-Oct-21 17:22 33.782665 -117.800733 208 2316ft 193kts
01-Oct-21 17:23 33.738569 -117.829296 209 1420ft 162kts
01-Oct-21 17:24 33.703532 -117.851333 209 720ft 126kts
01-Oct-21 17:25 33.675411 -117.869067 207 60ft 90kts
01-Oct-21 17:26 33.669242 -117.871751 129 59ft 0kts
01-Oct-21 17:27 33.669174 -117.871644 125 59ft 4kts
01-Oct-21 17:28 33.671120 -117.868876 39 60ft 13kts
01-Oct-21 17:29 33.672042 -117.867500 29 60ft 0kts
01-Oct-21 17:31 33.672042 -117.867500 28 60ft 0kts

Navigation Log

Ident Type
Flight plan parsing failed, navigation log unavailable